Time;durP1;ratioP1;P1;durP2;ratioP2;P2;SDS_P1;SDS_P2;PMS_P1;PMS_P2;Temp;Humidity;BMP_temperature;BMP_pressure;BME280_temperature;BME280_humidity;BME280_pressure;Samples;Min_cycle;Max_cycle;Signal;HPM_P1;HPM_P2
2023/08/12 07:45:29;;;;;;;6.97;5.40;;;;;;;;;;4472803;23;20508;-88
2023/08/12 07:47:58;;;;;;;5.47;4.97;;;;;;;;;;4964582;29;20487;-89
2023/08/12 07:50:56;;;;;;;7.13;5.60;;;21.90;99.90;;;;;;4973296;28;20434;-93
2023/08/12 07:53:23;;;;;;;5.30;4.90;;;21.90;99.90;;;;;;4894836;29;20450;-88
2023/08/12 07:55:51;;;;;;;5.63;5.13;;;22.20;1.00;;;;;;4955202;29;20494;-88
2023/08/12 07:58:19;;;;;;;5.77;5.20;;;22.00;99.90;;;;;;4974687;28;20430;-88
2023/08/12 08:00:48;;;;;;;5.70;5.30;;;22.10;99.90;;;;;;4980015;28;20457;-89
2023/08/12 08:03:15;;;;;;;7.20;5.57;;;;;;;;;;4978142;28;20495;-88
2023/08/12 08:05:42;;;;;;;5.93;5.33;;;22.10;46.60;;;;;;4972065;29;20470;-89
2023/08/12 08:08:09;;;;;;;6.13;5.63;;;;;;;;;;4970692;29;20526;-89
2023/08/12 08:10:36;;;;;;;5.90;5.23;;;22.60;1.00;;;;;;4975205;28;20474;-89
2023/08/12 08:13:04;;;;;;;5.93;5.40;;;22.50;1.00;;;;;;4973629;29;20486;-88
2023/08/12 08:15:31;;;;;;;6.30;5.80;;;;;;;;;;4966297;29;20494;-88
2023/08/12 08:18:04;;;;;;;6.40;5.80;;;22.30;99.90;;;;;;4967711;29;20466;-88
2023/08/12 08:20:30;;;;;;;6.90;6.20;;;22.20;99.90;;;;;;4965933;29;20442;-87
2023/08/12 08:22:58;;;;;;;6.07;5.67;;;;;;;;;;4966484;29;20458;-86
2023/08/12 08:25:25;;;;;;;6.30;5.70;;;22.30;99.90;;;;;;4961628;29;20486;-87
2023/08/12 08:27:51;;;;;;;6.10;5.57;;;22.30;99.90;;;;;;4967280;29;20466;-87
2023/08/12 08:30:19;;;;;;;6.13;5.63;;;22.30;99.90;;;;;;4960445;29;20455;-87
2023/08/12 08:32:47;;;;;;;6.67;6.07;;;;;;;;;;4958690;29;20926;-87
2023/08/12 08:35:21;;;;;;;11.03;6.07;;;22.30;1.00;;;;;;4958519;29;20502;-87
2023/08/12 08:37:54;;;;;;;6.73;6.13;;;22.60;1.00;;;;;;4971007;29;20463;-87
2023/08/12 08:40:32;;;;;;;5.47;5.17;;;22.10;1.00;;;;;;4968814;29;20567;-87
2023/08/12 08:43:04;;;;;;;6.17;5.67;;;22.10;1.00;;;;;;4971631;29;20446;-87
2023/08/12 08:45:34;;;;;;;5.73;5.13;;;22.00;1.00;;;;;;4970146;28;20470;-87
2023/08/12 08:48:01;;;;;;;6.97;6.47;;;22.00;1.00;;;;;;4968291;29;20931;-88
2023/08/12 08:50:31;;;;;;;7.50;6.20;;;21.70;1.00;;;;;;4963939;29;20504;-87
2023/08/12 08:53:00;;;;;;;6.43;5.83;;;22.00;1.00;;;;;;4963063;29;20938;-88
2023/08/12 08:55:27;;;;;;;7.57;6.27;;;21.80;1.00;;;;;;4962053;29;20525;-86
2023/08/12 08:57:55;;;;;;;5.83;5.43;;;21.50;1.00;;;;;;4962971;29;20472;-87
2023/08/12 09:00:35;;;;;;;6.67;5.97;;;;;;;;;;4965096;29;20536;-91
2023/08/12 09:03:03;;;;;;;6.90;6.23;;;21.80;99.90;;;;;;4963893;29;20505;-87
2023/08/12 12:13:56;;;;;;;7.87;7.17;;;24.50;26.40;;;;;;5632634;23;20943;-88
2023/08/12 12:16:23;;;;;;;8.43;7.27;;;;;;;;;;4967608;29;20897;-88
2023/08/12 12:18:57;;;;;;;7.33;6.73;;;24.10;99.90;;;;;;4962552;29;20903;-90
2023/08/12 12:21:24;;;;;;;8.87;7.50;;;24.00;99.90;;;;;;4958624;28;20486;-90
2023/08/12 12:23:53;;;;;;;8.17;7.03;;;23.90;99.90;;;;;;4961138;29;20438;-88
2023/08/12 12:26:20;;;;;;;8.27;7.43;;;23.70;99.90;;;;;;4959196;29;20896;-88
2023/08/12 12:28:47;;;;;;;9.67;8.77;;;23.80;1.00;;;;;;4960158;29;20530;-86
2023/08/12 12:31:16;;;;;;;8.73;7.17;;;23.70;1.00;;;;;;4960838;29;20509;-86
2023/08/12 12:33:42;;;;;;;7.10;6.40;;;23.60;1.00;;;;;;4959206;29;20549;-86
2023/08/12 12:36:09;;;;;;;7.50;6.90;;;23.70;1.00;;;;;;4959102;29;20466;-86
2023/08/12 12:38:36;;;;;;;7.27;6.53;;;23.50;1.00;;;;;;4963023;29;20510;-87
2023/08/12 12:41:03;;;;;;;8.03;7.10;;;23.60;1.00;;;;;;4959142;29;20967;-86
2023/08/12 12:43:30;;;;;;;7.40;6.80;;;23.40;1.00;;;;;;4959755;29;20965;-87
2023/08/12 12:45:57;;;;;;;12.87;7.17;;;24.00;1.00;;;;;;4962701;29;20569;-86
2023/08/12 12:48:25;;;;;;;7.27;6.60;;;23.10;1.00;;;;;;4966414;29;20871;-89
2023/08/12 12:51:15;;;;;;;7.90;7.30;;;23.40;1.00;;;;;;4966943;29;20438;-90
2023/08/12 12:53:43;;;;;;;7.20;6.60;;;;;;;;;;4966370;29;20529;-89
2023/08/12 12:56:10;;;;;;;6.97;6.37;;;;;;;;;;4968478;29;20470;-90
2023/08/12 12:58:39;;;;;;;6.27;5.67;;;24.00;1.00;;;;;;4976676;29;20445;-89
2023/08/12 13:01:08;;;;;;;6.90;6.40;;;;;;;;;;4972159;29;20446;-89
2023/08/12 13:03:37;;;;;;;10.67;6.57;;;24.20;1.00;;;;;;4962533;29;20435;-89
2023/08/12 13:06:09;;;;;;;6.70;6.20;;;24.30;99.90;;;;;;4964814;29;20494;-91
2023/08/12 13:08:36;;;;;;;17.90;15.50;;;;;;;;;;4961895;29;20481;-87
2023/08/12 13:11:03;;;;;;;12.50;11.47;;;24.50;99.90;;;;;;4962778;29;20879;-89
2023/08/12 13:13:30;;;;;;;12.90;11.90;;;24.50;99.90;;;;;;4979004;28;20482;-87
2023/08/12 13:15:57;;;;;;;9.93;8.97;;;24.40;1.00;;;;;;4978145;28;20450;-87
2023/08/12 13:18:24;;;;;;;7.23;6.53;;;24.70;99.90;;;;;;4962911;29;20442;-86
2023/08/12 13:20:52;;;;;;;8.33;7.47;;;24.60;99.90;;;;;;4961255;29;20450;-87
2023/08/12 13:23:19;;;;;;;7.53;6.93;;;24.40;1.00;;;;;;4962764;29;20446;-90
2023/08/12 13:25:46;;;;;;;13.50;11.03;;;;;;;;;;4962033;29;20526;-87
2023/08/12 13:28:13;;;;;;;17.63;13.03;;;24.80;99.30;;;;;;4965842;29;20461;-87
2023/08/12 13:30:40;;;;;;;16.57;11.00;;;25.00;1.00;;;;;;4966684;29;20478;-87
2023/08/12 13:33:07;;;;;;;10.73;9.10;;;24.90;99.90;;;;;;4981128;28;20442;-86
2023/08/12 13:35:34;;;;;;;8.87;7.97;;;24.90;99.90;;;;;;4975602;28;20465;-86
2023/08/12 13:38:02;;;;;;;10.90;7.20;;;24.90;92.70;;;;;;4963666;29;20478;-87
2023/08/12 22:11:49;;;;;;;9.33;8.40;;;;;;;;;;4807543;29;20517;-89
2023/08/12 22:52:05;;;;;;;5.17;4.77;;;20.90;99.90;;;;;;4858851;29;20544;-91
2023/08/12 22:54:38;;;;;;;5.63;5.17;;;;;;;;;;4921194;29;20456;-89
2023/08/12 22:57:26;;;;;;;5.97;5.40;;;;;;;;;;4993798;28;20477;-87
2023/08/12 23:03:50;;;;;;;5.43;4.93;;;21.00;99.90;;;;;;4983899;28;20429;-90
2023/08/12 23:16:21;;;;;;;5.57;4.77;;;20.90;99.90;;;;;;4984053;28;20483;-89
2023/08/12 23:19:15;;;;;;;;;;;;;;;;;;;;;
